createdAt,value
2023-04-03T00:01:50.960Z,90.50
2023-04-03T00:04:19.964Z,90.90
2023-04-03T00:06:49.036Z,90.60
2023-04-03T00:09:18.308Z,90.60
2023-04-03T00:11:48.124Z,90.50
2023-04-03T00:14:17.297Z,90.40
2023-04-03T00:16:47.998Z,90.40
2023-04-03T00:19:17.370Z,90.30
2023-04-03T00:21:46.658Z,90.70
2023-04-03T00:24:15.772Z,90.30
2023-04-03T00:26:45.092Z,90.20
2023-04-03T00:29:14.128Z,90.20
2023-04-03T00:31:43.268Z,90.20
2023-04-03T00:34:13.752Z,90.20
2023-04-03T00:36:42.969Z,90.10
2023-04-03T00:39:12.016Z,90.10
2023-04-03T00:41:41.433Z,90.10
2023-04-03T00:45:22.552Z,90.20
2023-04-03T00:47:52.400Z,90.20
2023-04-03T00:50:22.894Z,90.20
2023-04-03T00:52:53.870Z,90.10
2023-04-03T00:55:23.546Z,90.20
2023-04-03T00:57:53.750Z,90.30
2023-04-03T01:00:27.135Z,90.60
2023-04-03T01:02:59.144Z,90.30
2023-04-03T01:05:30.428Z,90.20
2023-04-03T01:08:00.729Z,90.20
2023-04-03T01:10:31.317Z,90.20
2023-04-03T01:13:04.316Z,90.50
2023-04-03T01:15:36.101Z,90.20
2023-04-03T01:18:06.498Z,90.20
2023-04-03T01:21:23.460Z,90.20
2023-04-03T01:24:08.292Z,90.20
2023-04-03T01:26:37.596Z,90.00
2023-04-03T01:29:06.811Z,90.00
2023-04-03T01:31:51.921Z,90.00
2023-04-03T01:34:25.486Z,89.80
2023-04-03T01:36:55.534Z,89.90
2023-04-03T01:39:28.385Z,89.80
2023-04-03T01:41:57.484Z,90.20
2023-04-03T01:44:33.915Z,89.80
2023-04-03T01:47:04.755Z,90.20
2023-04-03T01:49:33.778Z,89.70
2023-04-03T01:52:03.111Z,89.80
2023-04-03T01:54:32.225Z,89.80
2023-04-03T01:57:01.290Z,89.70
2023-04-03T01:59:30.503Z,89.80
2023-04-03T02:01:59.664Z,89.80
2023-04-03T02:04:30.235Z,89.80
2023-04-03T02:06:59.367Z,89.60
2023-04-03T02:09:28.455Z,89.60
2023-04-03T02:11:57.690Z,89.60
2023-04-03T02:14:28.537Z,89.50
2023-04-03T02:16:57.764Z,89.60
2023-04-03T02:19:26.772Z,90.10
2023-04-03T02:21:57.130Z,89.40
2023-04-03T02:24:26.262Z,89.40
2023-04-03T02:26:55.477Z,89.40
2023-04-03T02:29:24.822Z,89.40
2023-04-03T02:31:54.207Z,89.50
2023-04-03T02:34:24.679Z,89.50
2023-04-03T02:36:56.250Z,89.50
2023-04-03T02:39:25.300Z,89.50
2023-04-03T02:41:54.500Z,89.50
2023-04-03T02:44:26.971Z,89.40
2023-04-03T02:46:56.144Z,89.40
2023-04-03T02:49:26.115Z,89.30
2023-04-03T02:51:56.527Z,89.30
2023-04-03T02:54:28.843Z,89.30
2023-04-03T02:57:01.142Z,89.20
2023-04-03T02:59:30.441Z,89.10
2023-04-03T03:01:59.654Z,89.00
2023-04-03T03:04:29.000Z,89.00
2023-04-03T03:07:00.713Z,88.90
2023-04-03T03:09:31.952Z,88.80
2023-04-03T03:12:01.312Z,88.80
2023-04-03T03:14:32.679Z,88.60
2023-04-03T03:17:01.760Z,88.60
2023-04-03T03:19:30.897Z,88.50
2023-04-03T03:22:01.251Z,88.50
2023-04-03T03:24:30.491Z,88.30
2023-04-03T03:26:59.486Z,88.40
2023-04-03T03:29:28.520Z,88.40
2023-04-03T03:31:57.625Z,88.40
2023-04-03T03:34:26.686Z,88.40
2023-04-03T03:36:56.124Z,88.50
2023-04-03T03:39:26.606Z,88.60
2023-04-03T03:41:55.729Z,88.60
2023-04-03T03:44:24.903Z,88.60
2023-04-03T03:46:55.640Z,88.50
2023-04-03T03:49:24.851Z,89.20
2023-04-03T03:51:54.201Z,88.10
2023-04-03T03:54:23.594Z,88.10
2023-04-03T03:56:55.453Z,88.20
2023-04-03T03:59:27.242Z,88.40
2023-04-03T04:01:56.562Z,88.40
2023-04-03T04:04:27.784Z,88.50
2023-04-03T04:06:57.835Z,88.40
2023-04-03T04:09:26.924Z,88.40
2023-04-03T04:11:57.561Z,88.20
2023-04-03T04:14:29.285Z,88.40
2023-04-03T04:17:03.400Z,88.30
2023-04-03T04:19:32.728Z,88.40
2023-04-03T04:22:01.846Z,88.40
2023-04-03T04:24:36.143Z,88.40
2023-04-03T04:27:07.950Z,88.30
2023-04-03T04:29:38.268Z,88.40
2023-04-03T04:32:09.915Z,88.30
2023-04-03T04:34:39.248Z,88.40
2023-04-03T04:37:08.727Z,88.40
2023-04-03T04:39:40.130Z,88.40
2023-04-03T04:42:14.661Z,88.30
2023-04-03T04:44:46.791Z,88.40
2023-04-03T04:47:17.149Z,89.10
2023-04-03T04:49:48.501Z,89.00
2023-04-03T04:52:18.031Z,88.30
2023-04-03T04:54:48.044Z,88.40
2023-04-03T04:57:18.866Z,88.30
2023-04-03T04:59:49.425Z,88.40
2023-04-03T05:02:18.466Z,88.40
2023-04-03T05:04:48.070Z,88.40
2023-04-03T05:07:23.058Z,88.40
2023-04-03T05:09:52.209Z,88.40
2023-04-03T05:12:23.068Z,88.40
2023-04-03T05:14:57.910Z,88.50
2023-04-03T05:17:28.756Z,88.20
2023-04-03T05:19:59.477Z,88.20
2023-04-03T05:22:29.898Z,88.20
2023-04-03T05:25:05.098Z,88.20
2023-04-03T05:27:36.029Z,88.40
2023-04-03T05:30:06.676Z,88.40
2023-04-03T05:32:37.149Z,88.20
2023-04-03T05:35:17.637Z,88.20
2023-04-03T05:37:49.314Z,88.20
2023-04-03T05:40:19.607Z,88.10
2023-04-03T05:42:54.506Z,88.10
2023-04-03T05:45:25.946Z,88.40
2023-04-03T05:47:55.517Z,88.40
2023-04-03T05:50:27.592Z,88.30
2023-04-03T05:53:00.076Z,88.40
2023-04-03T05:55:31.623Z,88.60
2023-04-03T05:58:02.114Z,88.40
2023-04-03T06:00:31.297Z,88.50
2023-04-03T06:03:04.551Z,88.40
2023-04-03T06:05:33.743Z,88.60
2023-04-03T06:08:02.848Z,88.50
2023-04-03T06:10:33.590Z,88.60
2023-04-03T06:13:07.276Z,88.60
2023-04-03T06:15:36.323Z,88.60
2023-04-03T06:18:05.623Z,88.30
2023-04-03T06:20:35.202Z,88.30
2023-04-03T06:23:04.280Z,89.10
2023-04-03T06:25:34.648Z,88.40
2023-04-03T06:28:03.692Z,88.60
2023-04-03T06:30:34.291Z,88.70
2023-04-03T06:33:03.547Z,88.90
2023-04-03T06:35:32.677Z,88.80
2023-04-03T06:38:01.659Z,89.00
2023-04-03T06:40:30.740Z,89.20
2023-04-03T06:42:59.812Z,89.50
2023-04-03T06:45:28.776Z,90.00
2023-04-03T06:47:59.314Z,90.50
2023-04-03T06:50:28.465Z,90.40
2023-04-03T06:52:57.722Z,90.60
2023-04-03T06:55:27.081Z,90.80
2023-04-03T06:57:56.252Z,91.00
2023-04-03T07:00:25.910Z,91.20
2023-04-03T07:02:54.902Z,91.40
2023-04-03T07:05:25.754Z,91.50
2023-04-03T07:07:54.751Z,91.60
2023-04-03T07:10:23.824Z,91.80
2023-04-03T07:12:53.659Z,92.00
2023-04-03T07:15:22.962Z,92.10
2023-04-03T07:17:51.928Z,92.50
2023-04-03T07:20:21.052Z,92.30
2023-04-03T07:22:51.564Z,92.40
2023-04-03T07:25:20.976Z,92.40
2023-04-03T07:27:50.176Z,92.70
2023-04-03T07:30:19.775Z,92.80
2023-04-03T07:32:48.910Z,93.00
2023-04-03T07:35:18.445Z,93.10
2023-04-03T07:37:47.558Z,93.50
2023-04-03T07:40:19.612Z,93.70
2023-04-03T07:42:49.297Z,93.30
2023-04-03T07:45:18.512Z,93.70
2023-04-03T07:47:47.856Z,93.80
2023-04-03T07:50:17.349Z,94.00
2023-04-03T07:52:46.575Z,94.00
2023-04-03T07:55:17.077Z,94.10
2023-04-03T07:57:46.180Z,94.30
2023-04-03T08:00:18.483Z,94.30
2023-04-03T08:02:51.497Z,94.20
2023-04-03T08:05:21.573Z,94.20
2023-04-03T08:07:50.661Z,94.10
2023-04-03T08:10:21.214Z,94.20
2023-04-03T08:12:50.450Z,93.90
2023-04-03T08:15:20.000Z,94.30
2023-04-03T08:17:49.227Z,94.20
2023-04-03T08:20:18.680Z,93.80
2023-04-03T08:22:49.922Z,93.70
2023-04-03T08:25:20.446Z,93.80
2023-04-03T08:27:49.450Z,93.70
2023-04-03T08:30:18.550Z,93.60
2023-04-03T08:32:47.575Z,93.50
2023-04-03T08:35:16.949Z,93.90
2023-04-03T08:37:45.927Z,93.60
2023-04-03T08:40:18.720Z,93.70
2023-04-03T08:43:07.093Z,92.90
2023-04-03T08:45:47.041Z,92.50
2023-04-03T08:48:22.717Z,92.40
2023-04-03T08:50:57.152Z,92.80
2023-04-03T08:53:33.491Z,92.30
2023-04-03T08:56:05.673Z,92.30
2023-04-03T08:58:47.974Z,93.00
2023-04-03T09:01:22.920Z,92.10
2023-04-03T09:03:51.984Z,92.20
2023-04-03T09:06:25.214Z,92.50
2023-04-03T09:09:05.793Z,92.40
2023-04-03T09:11:48.412Z,92.00
2023-04-03T09:14:28.535Z,91.60
2023-04-03T09:17:03.235Z,91.50
2023-04-03T09:19:44.094Z,92.00
2023-04-03T09:22:19.997Z,91.60
2023-04-03T09:24:58.279Z,91.70
2023-04-03T09:27:27.499Z,91.80
2023-04-03T09:29:59.488Z,92.00
2023-04-03T09:32:32.535Z,91.50
2023-04-03T09:35:19.233Z,91.80
2023-04-03T09:37:52.109Z,91.70
2023-04-03T09:40:37.019Z,91.90
2023-04-03T09:43:28.914Z,90.80
2023-04-03T09:46:23.350Z,91.00
2023-04-03T09:49:08.213Z,91.10
2023-04-03T09:51:39.462Z,91.80
2023-04-03T09:54:34.518Z,92.30
2023-04-03T09:57:09.855Z,91.10
2023-04-03T09:59:45.066Z,92.10
2023-04-03T10:02:34.645Z,92.10
2023-04-03T10:07:46.413Z,92.40
2023-04-03T10:10:24.962Z,92.10
2023-04-03T10:13:09.402Z,92.30
2023-04-03T10:15:46.084Z,91.30
2023-04-03T10:18:34.894Z,92.40
2023-04-03T10:21:24.693Z,91.90
2023-04-03T10:24:13.303Z,92.60
2023-04-03T10:26:52.794Z,92.40
2023-04-03T10:29:42.048Z,91.70
2023-04-03T10:32:52.492Z,91.90
2023-04-03T10:35:39.811Z,91.70
2023-04-03T10:38:20.450Z,92.50
2023-04-03T10:40:57.729Z,91.90
2023-04-03T10:43:36.224Z,92.50
2023-04-03T10:46:50.709Z,92.50
